Time;durP1;ratioP1;P1;durP2;ratioP2;P2;SDS_P1;SDS_P2;PMS_P1;PMS_P2;Temp;Humidity;BMP_temperature;BMP_pressure;BME280_temperature;BME280_humidity;BME280_pressure;Samples;Min_cycle;Max_cycle;Signal;HPM_P1;HPM_P2
2022/05/13 00:01:56;;;;;;;1.30;1.20;;;25.40;56.40;;;;;;5074156;28;20445;-89
2022/05/13 00:04:23;;;;;;;1.33;1.23;;;25.40;56.40;;;;;;5073953;28;20445;-89
2022/05/13 00:06:50;;;;;;;1.87;1.30;;;25.40;56.40;;;;;;5073856;28;20487;-90
2022/05/13 00:09:17;;;;;;;1.30;1.20;;;25.40;56.60;;;;;;5073902;28;20444;-89
2022/05/13 00:11:44;;;;;;;1.30;1.10;;;25.40;56.40;;;;;;5073894;28;20443;-90
2022/05/13 00:14:11;;;;;;;1.13;1.03;;;25.40;56.50;;;;;;5073666;28;21058;-89
2022/05/13 00:16:38;;;;;;;1.17;1.03;;;25.40;56.40;;;;;;5074025;28;20437;-89
2022/05/13 00:19:11;;;;;;;1.60;1.50;;;25.40;56.50;;;;;;5072928;28;20811;-89
2022/05/13 00:21:38;;;;;;;1.30;1.20;;;25.40;56.60;;;;;;5073817;28;20444;-89
2022/05/13 00:24:06;;;;;;;1.10;1.00;;;25.40;56.50;;;;;;5073751;28;20447;-90
2022/05/13 00:26:32;;;;;;;1.50;1.20;;;25.30;56.50;;;;;;5073452;28;20476;-89
2022/05/13 00:28:59;;;;;;;1.20;1.10;;;25.30;57.10;;;;;;5073840;28;20448;-89
2022/05/13 00:31:26;;;;;;;1.23;1.10;;;25.30;56.60;;;;;;5073641;28;20441;-90
2022/05/13 00:33:53;;;;;;;1.30;1.10;;;25.30;56.60;;;;;;5073447;28;20437;-89
2022/05/13 00:36:22;;;;;;;1.00;0.87;;;25.30;56.50;;;;;;5073598;28;20449;-89
2022/05/13 00:38:49;;;;;;;1.10;0.90;;;25.30;56.40;;;;;;5073575;28;20445;-89
2022/05/13 00:41:16;;;;;;;1.10;1.00;;;25.30;56.40;;;;;;5073563;28;20437;-89
2022/05/13 00:43:49;;;;;;;1.20;1.10;;;25.30;56.40;;;;;;5073587;28;20452;-90
2022/05/13 00:46:16;;;;;;;1.17;1.00;;;25.40;56.50;;;;;;5073485;28;20445;-89
2022/05/13 00:48:44;;;;;;;1.27;1.17;;;25.30;56.50;;;;;;5073325;28;20461;-89
2022/05/13 00:51:12;;;;;;;1.10;0.90;;;25.30;56.40;;;;;;5073523;28;20440;-89
2022/05/13 00:53:40;;;;;;;1.60;1.13;;;25.30;56.50;;;;;;5073135;28;20437;-89
2022/05/13 00:56:08;;;;;;;1.17;1.07;;;25.30;56.50;;;;;;5073521;28;20930;-89
2022/05/13 00:58:40;;;;;;;1.10;0.90;;;25.30;56.60;;;;;;5073293;28;20445;-89
2022/05/13 01:01:07;;;;;;;1.30;1.20;;;25.30;56.60;;;;;;5073599;28;20775;-88
2022/05/13 01:03:36;;;;;;;1.23;1.13;;;25.30;56.60;;;;;;5073491;28;20811;-89
2022/05/13 01:06:06;;;;;;;1.33;1.23;;;25.30;56.40;;;;;;5073466;28;20445;-88
2022/05/13 01:08:36;;;;;;;1.40;1.07;;;25.30;56.40;;;;;;5073292;28;20441;-89
2022/05/13 01:11:11;;;;;;;1.20;1.00;;;25.30;56.50;;;;;;5073170;28;20942;-89
2022/05/13 01:13:38;;;;;;;1.10;1.00;;;25.30;56.60;;;;;;5073124;28;20440;-88
2022/05/13 01:16:06;;;;;;;1.60;1.10;;;25.20;56.60;;;;;;5072980;28;20804;-88
2022/05/13 01:18:34;;;;;;;1.10;1.00;;;25.30;56.70;;;;;;5073427;28;20472;-89
2022/05/13 01:21:01;;;;;;;1.30;1.10;;;25.30;56.50;;;;;;5073282;28;20473;-89
2022/05/13 01:23:32;;;;;;;1.23;1.03;;;25.30;56.70;;;;;;5073100;28;20437;-89
2022/05/13 01:26:02;;;;;;;1.10;0.97;;;25.30;56.60;;;;;;5073210;28;20445;-89
2022/05/13 01:28:31;;;;;;;1.20;0.90;;;25.30;56.60;;;;;;5072832;28;20477;-89
2022/05/13 01:30:59;;;;;;;1.10;1.00;;;25.30;56.70;;;;;;5076530;28;20472;-89
2022/05/13 01:33:27;;;;;;;0.97;0.83;;;25.20;56.50;;;;;;5076852;28;20444;-89
2022/05/13 01:35:57;;;;;;;1.63;1.00;;;25.20;56.60;;;;;;5077019;28;20436;-89
2022/05/13 01:38:27;;;;;;;1.17;1.00;;;25.20;56.60;;;;;;5076990;28;20928;-90
2022/05/13 01:40:55;;;;;;;1.30;0.80;;;25.20;56.60;;;;;;5076748;28;20764;-89
2022/05/13 01:43:24;;;;;;;1.40;1.07;;;25.20;56.60;;;;;;5076668;28;20452;-90
2022/05/13 01:45:51;;;;;;;1.10;0.93;;;25.20;56.70;;;;;;5076833;28;20432;-89
2022/05/13 01:48:18;;;;;;;1.50;1.03;;;25.20;57.30;;;;;;5076477;28;20480;-90
2022/05/13 01:50:44;;;;;;;1.10;1.00;;;25.20;56.70;;;;;;5076555;28;20448;-89
2022/05/13 01:53:12;;;;;;;1.10;0.90;;;25.20;56.70;;;;;;5076316;28;20437;-88
2022/05/13 01:55:42;;;;;;;1.37;1.10;;;25.20;56.70;;;;;;5076270;28;20441;-88
2022/05/13 01:58:11;;;;;;;1.00;0.90;;;25.20;56.70;;;;;;5076872;28;20524;-89
2022/05/13 02:00:38;;;;;;;1.10;1.00;;;25.20;56.60;;;;;;5076326;28;20441;-89
2022/05/13 02:05:49;;;;;;;1.50;1.20;;;25.20;56.70;;;;;;5076490;28;20506;-88
2022/05/13 02:08:16;;;;;;;1.33;1.10;;;25.20;56.70;;;;;;5076223;28;21005;-89
2022/05/13 02:10:44;;;;;;;1.10;1.00;;;25.20;56.80;;;;;;5076220;28;20772;-89
2022/05/13 02:13:12;;;;;;;1.20;1.00;;;25.20;56.70;;;;;;5076102;28;20444;-88
2022/05/13 02:15:39;;;;;;;1.20;1.00;;;25.20;56.70;;;;;;5075797;28;20476;-89
2022/05/13 02:18:07;;;;;;;1.20;0.97;;;25.20;56.70;;;;;;5075890;28;20475;-89
2022/05/13 02:20:34;;;;;;;1.43;1.00;;;25.20;56.70;;;;;;5076374;28;20498;-90
2022/05/13 02:23:01;;;;;;;1.10;0.93;;;25.20;56.70;;;;;;5075961;28;20437;-89
2022/05/13 02:25:29;;;;;;;1.00;0.80;;;25.20;56.70;;;;;;5075850;28;20770;-89
2022/05/13 02:27:57;;;;;;;1.20;1.03;;;25.20;56.70;;;;;;5075936;28;20515;-88
2022/05/13 02:30:26;;;;;;;1.10;0.90;;;25.20;56.70;;;;;;5075868;28;20448;-89
2022/05/13 02:32:53;;;;;;;1.60;1.20;;;25.20;56.70;;;;;;5075701;28;20814;-88
2022/05/13 02:35:20;;;;;;;1.10;1.00;;;25.10;56.70;;;;;;5075778;28;20441;-88
2022/05/13 02:37:49;;;;;;;1.30;1.20;;;25.20;56.70;;;;;;5075909;28;20441;-88
2022/05/13 02:40:17;;;;;;;1.00;0.80;;;25.10;56.70;;;;;;5075791;28;20445;-89
2022/05/13 02:42:44;;;;;;;1.30;1.20;;;25.10;56.70;;;;;;5074941;28;20445;-88
2022/05/13 02:45:11;;;;;;;1.10;0.90;;;25.10;56.70;;;;;;5075545;28;20452;-88
2022/05/13 02:47:42;;;;;;;2.13;1.03;;;25.10;56.70;;;;;;5075447;28;20473;-89
2022/05/13 02:50:19;;;;;;;1.00;0.80;;;25.10;56.70;;;;;;5075637;28;20445;-88
2022/05/13 02:52:47;;;;;;;1.10;0.80;;;25.10;56.80;;;;;;5075497;28;20441;-87
2022/05/13 02:55:14;;;;;;;1.17;1.00;;;25.10;56.90;;;;;;5075432;28;20451;-88
2022/05/13 02:57:41;;;;;;;1.10;0.90;;;25.10;56.80;;;;;;5075469;28;20437;-88
2022/05/13 03:00:09;;;;;;;1.10;0.90;;;25.10;56.70;;;;;;5075342;28;20532;-89
2022/05/13 03:02:36;;;;;;;1.10;0.90;;;25.10;56.70;;;;;;5075260;28;20806;-88
2022/05/13 03:05:06;;;;;;;1.10;0.90;;;25.10;56.70;;;;;;5075214;28;20529;-88
2022/05/13 03:07:33;;;;;;;1.20;0.93;;;25.10;56.70;;;;;;5075137;28;20831;-89
2022/05/13 03:10:00;;;;;;;1.10;1.00;;;25.10;56.70;;;;;;5075033;28;20441;-88
2022/05/13 03:12:26;;;;;;;1.10;0.90;;;25.10;56.70;;;;;;5075272;28;20444;-89
2022/05/13 03:14:53;;;;;;;1.10;1.00;;;25.10;56.70;;;;;;5074812;28;20469;-88
2022/05/13 03:17:20;;;;;;;1.00;0.80;;;25.10;56.70;;;;;;5074862;28;20448;-88
2022/05/13 03:19:47;;;;;;;1.13;1.00;;;25.20;56.70;;;;;;5074997;28;20464;-88
2022/05/13 03:22:16;;;;;;;1.10;1.00;;;25.10;57.30;;;;;;5075047;28;20452;-88
2022/05/13 03:24:43;;;;;;;1.27;1.17;;;25.10;56.70;;;;;;5074849;28;20502;-88
2022/05/13 03:27:10;;;;;;;1.00;0.80;;;25.10;56.70;;;;;;5074648;28;20452;-89
2022/05/13 03:29:37;;;;;;;1.00;0.80;;;25.10;56.70;;;;;;5074633;28;20445;-89
2022/05/13 03:32:05;;;;;;;1.00;0.80;;;25.10;56.70;;;;;;5074660;28;20911;-89
2022/05/13 03:34:32;;;;;;;1.67;1.00;;;25.10;56.70;;;;;;5074765;28;20803;-89
2022/05/13 03:36:59;;;;;;;1.20;1.10;;;25.00;56.60;;;;;;5074564;28;20447;-89
2022/05/13 03:39:27;;;;;;;1.10;0.90;;;25.10;56.70;;;;;;5074443;28;20439;-88
2022/05/13 03:41:54;;;;;;;1.13;0.93;;;25.00;56.70;;;;;;5074541;28;20928;-88
2022/05/13 03:44:21;;;;;;;1.17;0.90;;;25.00;56.70;;;;;;5074326;28;20449;-88
2022/05/13 03:46:48;;;;;;;1.10;1.00;;;25.10;56.70;;;;;;5074442;28;20451;-90
2022/05/13 03:49:15;;;;;;;1.17;0.93;;;25.10;56.70;;;;;;5074296;28;20573;-88
2022/05/13 03:51:42;;;;;;;1.10;0.90;;;25.00;56.60;;;;;;5074328;28;20555;-88
2022/05/13 03:54:09;;;;;;;1.50;0.90;;;25.00;56.60;;;;;;5074192;28;20445;-89
2022/05/13 03:56:37;;;;;;;1.10;1.00;;;25.00;56.70;;;;;;5074138;28;20441;-88
2022/05/13 03:59:04;;;;;;;1.00;0.80;;;25.00;56.70;;;;;;5074124;28;20999;-88
2022/05/13 04:01:31;;;;;;;1.00;0.90;;;25.00;56.60;;;;;;5074065;28;20445;-88
2022/05/13 04:03:58;;;;;;;1.20;0.93;;;25.10;56.70;;;;;;5073986;28;20936;-88
2022/05/13 04:09:10;;;;;;;1.13;1.00;;;25.00;56.70;;;;;;5073968;28;20830;-88
2022/05/13 04:11:40;;;;;;;1.10;1.00;;;25.00;56.70;;;;;;5073842;28;20437;-88
2022/05/13 04:16:52;;;;;;;1.10;0.97;;;25.00;56.70;;;;;;5074047;28;20482;-89
2022/05/13 04:19:19;;;;;;;1.10;0.93;;;25.00;56.70;;;;;;5073519;28;21030;-88
2022/05/13 04:21:46;;;;;;;1.50;0.83;;;25.00;56.70;;;;;;5073711;28;20445;-88
2022/05/13 04:24:17;;;;;;;1.27;1.00;;;25.00;56.70;;;;;;5073587;28;20437;-88
2022/05/13 04:26:47;;;;;;;1.10;0.90;;;25.00;56.60;;;;;;5073603;28;20445;-88
2022/05/13 04:29:14;;;;;;;1.00;0.90;;;25.00;56.60;;;;;;5073598;28;20490;-88
2022/05/13 04:31:43;;;;;;;1.07;0.80;;;25.00;56.70;;;;;;5073503;28;20440;-88
2022/05/13 04:34:11;;;;;;;1.20;1.10;;;25.00;56.70;;;;;;5073542;28;20437;-89
2022/05/13 04:36:38;;;;;;;1.10;0.90;;;25.00;56.70;;;;;;5073657;28;20429;-88
2022/05/13 04:39:05;;;;;;;1.10;0.90;;;25.00;56.70;;;;;;5073469;28;20433;-88
2022/05/13 04:44:18;;;;;;;1.50;1.20;;;25.00;56.70;;;;;;5073542;28;20436;-89
2022/05/13 04:46:45;;;;;;;1.00;0.80;;;25.00;56.70;;;;;;5073573;28;20428;-88
2022/05/13 04:49:12;;;;;;;1.00;0.80;;;25.00;56.70;;;;;;5073247;28;20488;-88
2022/05/13 04:51:39;;;;;;;1.10;1.00;;;25.00;56.70;;;;;;5073383;28;20445;-88
2022/05/13 04:54:06;;;;;;;2.03;1.10;;;25.00;56.70;;;;;;5073441;28;20853;-88
2022/05/13 04:56:34;;;;;;;1.30;0.90;;;25.00;56.60;;;;;;5073381;28;20441;-88
2022/05/13 04:59:01;;;;;;;1.10;0.93;;;25.00;56.60;;;;;;5073346;28;20436;-88
2022/05/13 05:01:29;;;;;;;1.20;1.00;;;25.00;57.20;;;;;;5073235;28;20443;-88
2022/05/13 05:03:56;;;;;;;1.20;0.90;;;25.00;56.60;;;;;;5072742;28;20443;-88
2022/05/13 05:06:23;;;;;;;1.00;0.80;;;25.00;56.60;;;;;;5073285;28;20445;-88
2022/05/13 05:08:50;;;;;;;1.10;0.90;;;25.00;56.60;;;;;;5073012;28;20492;-88
2022/05/13 05:11:18;;;;;;;1.20;0.90;;;25.00;56.60;;;;;;5073172;28;20437;-88
2022/05/13 05:13:46;;;;;;;1.10;0.90;;;25.00;56.60;;;;;;5072920;28;20451;-88
2022/05/13 05:16:15;;;;;;;1.03;0.87;;;25.00;56.70;;;;;;5073063;28;20445;-88
2022/05/13 05:18:44;;;;;;;1.20;0.93;;;25.00;56.70;;;;;;5073073;28;20473;-88
2022/05/13 05:21:12;;;;;;;1.00;0.80;;;25.00;56.70;;;;;;5073110;28;20448;-88
2022/05/13 05:23:41;;;;;;;1.43;1.03;;;25.00;56.70;;;;;;5073345;28;20756;-87
2022/05/13 05:26:08;;;;;;;1.00;0.80;;;25.00;56.70;;;;;;5073264;28;20448;-88
2022/05/13 05:28:37;;;;;;;1.10;0.80;;;25.00;56.70;;;;;;5073068;28;20503;-88
2022/05/13 05:31:05;;;;;;;1.00;0.80;;;25.00;56.70;;;;;;5072978;28;20528;-88
2022/05/13 05:33:32;;;;;;;1.13;0.90;;;25.00;56.70;;;;;;5072961;28;20460;-88
2022/05/13 05:36:01;;;;;;;1.20;1.00;;;25.00;56.70;;;;;;5072783;28;20524;-88
2022/05/13 05:38:27;;;;;;;1.20;0.90;;;25.00;56.70;;;;;;5072755;28;20437;-88
2022/05/13 05:40:55;;;;;;;1.53;1.03;;;25.00;56.60;;;;;;5072896;28;20458;-88
2022/05/13 05:43:22;;;;;;;1.77;0.90;;;25.00;56.60;;;;;;5073015;28;20437;-88
2022/05/13 05:45:50;;;;;;;1.00;0.80;;;25.00;56.60;;;;;;5072814;28;20463;-88
2022/05/13 05:48:21;;;;;;;1.10;1.00;;;25.00;57.20;;;;;;5072467;28;20489;-88
2022/05/13 05:50:49;;;;;;;1.17;1.07;;;25.10;57.20;;;;;;5072727;28;20958;-88
2022/05/13 05:57:13;;;;;;;1.07;0.90;;;25.00;56.60;;;;;;5072742;28;20920;-88
2022/05/13 05:58:52;;;;;;;1.00;0.80;;;25.00;56.60;;;;;;5072801;28;20494;-88
2022/05/13 06:01:19;;;;;;;0.90;0.70;;;25.00;57.20;;;;;;5072735;28;20449;-88
2022/05/13 06:03:46;;;;;;;1.07;0.80;;;25.00;56.70;;;;;;5072601;28;20433;-88
2022/05/13 06:06:13;;;;;;;1.00;0.80;;;25.00;56.60;;;;;;5073113;28;20814;-88
2022/05/13 06:08:42;;;;;;;1.47;0.90;;;25.00;56.60;;;;;;5072502;28;20550;-89
2022/05/13 06:11:10;;;;;;;1.10;0.93;;;25.00;56.60;;;;;;5072622;28;20812;-89
2022/05/13 06:13:37;;;;;;;1.50;1.00;;;25.00;56.60;;;;;;5072467;28;20445;-89
2022/05/13 06:16:07;;;;;;;1.20;0.90;;;25.00;56.60;;;;;;5072501;28;20487;-88
2022/05/13 06:18:35;;;;;;;1.10;0.90;;;25.00;56.60;;;;;;5076061;28;20465;-88
2022/05/13 06:21:02;;;;;;;1.13;0.90;;;25.00;56.60;;;;;;5076239;28;20447;-88
2022/05/13 06:23:29;;;;;;;1.53;0.93;;;25.00;56.60;;;;;;5076041;28;20491;-89
2022/05/13 06:25:57;;;;;;;1.20;0.80;;;25.00;56.60;;;;;;5076181;28;20796;-88
2022/05/13 06:28:24;;;;;;;1.10;0.90;;;25.00;56.60;;;;;;5075664;28;20473;-88
2022/05/13 06:30:51;;;;;;;1.10;0.90;;;25.00;56.60;;;;;;5076162;28;20445;-88
2022/05/13 06:33:18;;;;;;;1.20;1.07;;;25.00;56.60;;;;;;5075702;28;20447;-88
2022/05/13 06:35:44;;;;;;;1.00;0.80;;;25.00;56.60;;;;;;5075817;28;20524;-88
2022/05/13 06:38:16;;;;;;;1.00;0.80;;;25.00;56.60;;;;;;5075678;28;20936;-88
2022/05/13 06:40:43;;;;;;;1.00;0.80;;;25.00;56.60;;;;;;5075660;28;20480;-88
2022/05/13 06:43:11;;;;;;;1.30;1.00;;;25.00;56.60;;;;;;5075673;28;20441;-88
2022/05/13 06:45:38;;;;;;;1.20;0.83;;;25.00;56.60;;;;;;5075639;28;20957;-88
2022/05/13 06:48:05;;;;;;;1.20;0.90;;;25.00;56.60;;;;;;5075372;28;20468;-88
2022/05/13 06:50:33;;;;;;;1.30;0.90;;;25.00;56.60;;;;;;5075548;28;20443;-88
2022/05/13 06:53:00;;;;;;;1.10;0.90;;;25.00;56.60;;;;;;5075363;28;20507;-88
2022/05/13 06:55:27;;;;;;;1.10;1.00;;;25.20;56.60;;;;;;5075450;28;20437;-88
2022/05/13 06:57:54;;;;;;;1.83;1.33;;;25.10;56.50;;;;;;5075202;28;20441;-88
2022/05/13 07:00:22;;;;;;;1.30;0.80;;;25.10;56.50;;;;;;5075360;28;20550;-88
2022/05/13 07:02:49;;;;;;;1.40;1.30;;;25.10;56.50;;;;;;5075277;28;20451;-89
2022/05/13 07:05:20;;;;;;;1.20;0.97;;;25.10;56.40;;;;;;5075330;28;20445;-89
2022/05/13 07:07:47;;;;;;;1.10;1.00;;;25.10;56.30;;;;;;5075374;28;20535;-88
2022/05/13 07:10:13;;;;;;;1.40;1.10;;;25.10;56.20;;;;;;5074988;28;20480;-88
2022/05/13 07:12:41;;;;;;;1.30;1.10;;;25.10;56.10;;;;;;5075036;28;20444;-88
2022/05/13 07:15:11;;;;;;;1.30;0.83;;;25.20;56.00;;;;;;5074815;28;20469;-89
2022/05/13 07:17:40;;;;;;;1.30;0.90;;;25.20;56.00;;;;;;5074776;28;20469;-88
2022/05/13 07:20:09;;;;;;;1.10;0.90;;;25.20;56.00;;;;;;5074821;28;20451;-88
2022/05/13 07:22:36;;;;;;;1.17;0.93;;;25.20;56.00;;;;;;5074990;28;20449;-89
2022/05/13 07:25:03;;;;;;;1.10;0.97;;;25.20;55.90;;;;;;5074877;28;20517;-88
2022/05/13 07:27:30;;;;;;;1.50;1.10;;;25.20;55.90;;;;;;5074181;28;20544;-88
2022/05/13 07:29:57;;;;;;;1.20;1.10;;;25.20;55.90;;;;;;5074669;28;20579;-89
2022/05/13 07:32:24;;;;;;;1.77;0.90;;;25.20;55.90;;;;;;5074520;28;20437;-89
2022/05/13 07:34:52;;;;;;;1.47;1.00;;;25.30;56.00;;;;;;5074867;28;20449;-89
2022/05/13 07:37:19;;;;;;;1.30;1.00;;;25.30;56.00;;;;;;5074773;28;20448;-88
2022/05/13 07:42:30;;;;;;;1.13;1.00;;;25.20;55.80;;;;;;5074561;28;20772;-89
2022/05/13 07:44:57;;;;;;;2.23;1.23;;;25.30;55.90;;;;;;5074526;28;20451;-88
2022/05/13 07:47:24;;;;;;;1.10;0.90;;;25.30;55.90;;;;;;5074264;28;20447;-88
2022/05/13 07:49:52;;;;;;;1.23;1.07;;;25.30;55.80;;;;;;5074179;28;20480;-88
2022/05/13 07:52:19;;;;;;;1.17;1.07;;;25.30;55.70;;;;;;5074299;28;20445;-88
2022/05/13 07:54:46;;;;;;;1.30;1.10;;;25.30;56.30;;;;;;5074327;28;20511;-89
2022/05/13 07:57:13;;;;;;;1.43;0.93;;;25.30;55.70;;;;;;5074414;28;20448;-88
2022/05/13 08:02:21;;;;;;;1.40;1.13;;;25.40;55.70;;;;;;5073040;28;20500;-88
2022/05/13 08:04:48;;;;;;;1.20;1.00;;;25.40;55.60;;;;;;5074096;28;20469;-89
2022/05/13 08:07:17;;;;;;;1.17;0.90;;;25.40;55.60;;;;;;5074013;28;20437;-89
2022/05/13 08:09:44;;;;;;;1.70;1.03;;;25.40;55.60;;;;;;5073935;28;20963;-88
2022/05/13 08:12:11;;;;;;;1.20;1.03;;;25.40;55.60;;;;;;5073776;28;20441;-89
2022/05/13 08:14:38;;;;;;;1.10;1.00;;;25.40;55.60;;;;;;5073789;28;20511;-89
2022/05/13 08:17:06;;;;;;;1.10;1.00;;;25.40;55.60;;;;;;5073948;28;20437;-89
2022/05/13 08:19:33;;;;;;;1.00;0.80;;;25.40;55.60;;;;;;5073729;28;20469;-89
2022/05/13 08:22:00;;;;;;;1.20;1.10;;;25.40;56.20;;;;;;5074059;28;20449;-89
2022/05/13 08:24:28;;;;;;;1.30;1.00;;;25.40;55.70;;;;;;5073916;28;20441;-89
2022/05/13 08:26:56;;;;;;;1.20;0.90;;;25.50;55.80;;;;;;5073598;28;20445;-89
2022/05/13 08:29:23;;;;;;;1.13;1.00;;;25.40;55.80;;;;;;5073739;28;20480;-89
2022/05/13 08:31:50;;;;;;;1.50;1.07;;;25.40;55.80;;;;;;5073694;28;20445;-89
2022/05/13 08:34:17;;;;;;;1.10;0.90;;;25.40;55.80;;;;;;5073650;28;20449;-89
2022/05/13 08:36:44;;;;;;;1.67;1.00;;;25.40;55.80;;;;;;5073738;28;20796;-89
2022/05/13 08:39:11;;;;;;;1.10;0.80;;;25.40;55.80;;;;;;5072950;28;20510;-88
2022/05/13 08:42:01;;;;;;;1.10;0.93;;;25.40;55.90;;;;;;5073525;28;20448;-89
2022/05/13 08:44:28;;;;;;;2.10;1.03;;;25.50;55.90;;;;;;5073734;28;20460;-88
2022/05/13 08:47:03;;;;;;;1.10;0.90;;;25.40;55.90;;;;;;5073365;28;20443;-89
2022/05/13 08:49:35;;;;;;;1.10;0.80;;;25.40;55.90;;;;;;5073560;28;20479;-89
2022/05/13 08:54:54;;;;;;;1.50;1.10;;;25.50;55.80;;;;;;5072187;28;20425;-89
2022/05/13 08:57:26;;;;;;;1.00;0.90;;;25.40;55.80;;;;;;5073304;28;20441;-89
2022/05/13 08:59:59;;;;;;;1.20;0.87;;;25.50;56.00;;;;;;5073528;28;20461;-88
2022/05/13 09:02:32;;;;;;;1.50;1.00;;;25.40;56.50;;;;;;5073538;28;20441;-88
2022/05/13 09:05:03;;;;;;;1.53;0.90;;;25.50;56.00;;;;;;5073276;28;20623;-88
2022/05/13 09:07:30;;;;;;;1.63;1.13;;;25.50;56.10;;;;;;5073459;28;20441;-89
2022/05/13 09:09:59;;;;;;;1.00;0.80;;;25.50;56.10;;;;;;5073129;28;20487;-89
2022/05/13 09:12:38;;;;;;;1.10;1.00;;;25.50;56.10;;;;;;5073390;28;20437;-89
2022/05/13 09:15:11;;;;;;;1.77;1.00;;;25.50;56.00;;;;;;5073187;28;20481;-89
2022/05/13 09:17:40;;;;;;;1.10;0.90;;;25.50;56.00;;;;;;5073286;28;20469;-90
2022/05/13 09:20:11;;;;;;;1.00;0.80;;;25.50;56.10;;;;;;5073099;28;20467;-89
2022/05/13 09:22:42;;;;;;;1.10;0.90;;;25.50;56.00;;;;;;5073411;28;20452;-89
2022/05/13 09:25:16;;;;;;;1.20;1.10;;;25.60;56.20;;;;;;5073127;28;20444;-89
2022/05/13 09:27:50;;;;;;;1.23;1.03;;;25.50;56.10;;;;;;5073148;28;20448;-89
2022/05/13 09:30:22;;;;;;;1.30;1.20;;;25.50;56.10;;;;;;5073187;28;20476;-89
2022/05/13 09:32:50;;;;;;;1.60;1.00;;;25.50;56.00;;;;;;5073066;28;20958;-89
2022/05/13 09:35:31;;;;;;;1.40;0.93;;;25.50;55.90;;;;;;5073335;28;20437;-89
2022/05/13 09:37:58;;;;;;;1.03;0.93;;;25.50;55.90;;;;;;5073054;28;20512;-89
2022/05/13 09:40:27;;;;;;;1.40;1.23;;;25.50;55.90;;;;;;5073236;28;20443;-89
2022/05/13 09:42:57;;;;;;;1.00;0.80;;;25.50;55.80;;;;;;5072917;28;20448;-89
2022/05/13 09:45:27;;;;;;;1.60;0.73;;;25.50;55.80;;;;;;5073199;28;20800;-90
2022/05/13 09:48:13;;;;;;;1.00;0.80;;;25.50;55.60;;;;;;5072814;28;20968;-89
2022/05/13 09:50:43;;;;;;;2.07;0.87;;;25.50;55.50;;;;;;5074270;28;20480;-89
2022/05/13 09:53:30;;;;;;;1.07;0.90;;;25.50;55.50;;;;;;5076855;28;20441;-89
2022/05/13 09:56:01;;;;;;;1.00;0.80;;;25.50;55.40;;;;;;5076713;28;20436;-89
2022/05/13 09:58:32;;;;;;;1.10;1.00;;;25.50;56.10;;;;;;5076912;28;20456;-88
2022/05/13 10:01:03;;;;;;;1.20;0.80;;;25.50;55.50;;;;;;5076414;28;20498;-89
2022/05/13 10:03:36;;;;;;;1.10;1.00;;;25.50;55.50;;;;;;5076522;28;20759;-89
2022/05/13 10:06:21;;;;;;;1.90;0.80;;;25.50;55.60;;;;;;5076477;28;20872;-89
2022/05/13 10:08:55;;;;;;;1.10;0.80;;;25.50;55.50;;;;;;5076726;28;20457;-89
2022/05/13 10:14:27;;;;;;;1.30;1.20;;;25.50;55.60;;;;;;5076410;28;20462;-88
2022/05/13 10:16:57;;;;;;;1.20;1.07;;;25.50;55.50;;;;;;5076256;28;20445;-89
2022/05/13 10:19:30;;;;;;;1.10;1.00;;;25.40;55.50;;;;;;5076406;28;20471;-89
2022/05/13 10:22:04;;;;;;;1.30;1.00;;;25.50;55.50;;;;;;5076251;28;20437;-88
2022/05/13 10:24:39;;;;;;;1.30;1.07;;;25.50;55.50;;;;;;5076304;28;20441;-89
2022/05/13 10:27:12;;;;;;;1.30;0.90;;;25.50;55.50;;;;;;5076280;28;20949;-89
2022/05/13 10:29:45;;;;;;;1.60;0.90;;;25.40;55.40;;;;;;5076153;28;20593;-89
2022/05/13 10:32:18;;;;;;;1.43;1.00;;;25.40;55.50;;;;;;5076045;28;20449;-89
2022/05/13 10:34:50;;;;;;;1.30;1.20;;;25.40;55.40;;;;;;5076051;28;20440;-89
2022/05/13 10:37:22;;;;;;;1.67;1.07;;;25.40;55.50;;;;;;5075867;28;20499;-89
2022/05/13 10:39:53;;;;;;;1.07;0.83;;;25.40;55.60;;;;;;5075990;28;20439;-90
2022/05/13 10:42:23;;;;;;;1.00;0.80;;;25.50;55.70;;;;;;5075973;28;20433;-89
2022/05/13 10:44:57;;;;;;;1.10;1.00;;;25.50;55.80;;;;;;5076011;28;20511;-89
2022/05/13 10:47:30;;;;;;;1.57;0.90;;;25.50;55.80;;;;;;5076189;28;20954;-89
2022/05/13 10:49:59;;;;;;;1.10;0.90;;;25.50;55.80;;;;;;5075985;28;20491;-89
2022/05/13 10:52:42;;;;;;;1.30;1.20;;;25.50;55.80;;;;;;5076170;28;20807;-89
2022/05/13 10:55:16;;;;;;;1.30;0.90;;;25.50;55.70;;;;;;5075738;28;20516;-89
2022/05/13 10:57:54;;;;;;;1.30;0.80;;;25.50;55.70;;;;;;5075642;28;20436;-89
2022/05/13 11:00:30;;;;;;;1.10;0.90;;;25.60;55.80;;;;;;5075563;28;20524;-89
2022/05/13 11:03:24;;;;;;;1.20;1.00;;;25.50;55.70;;;;;;5074950;28;20490;-88
2022/05/13 11:06:06;;;;;;;1.70;1.07;;;25.50;55.60;;;;;;5075391;28;20441;-90
2022/05/13 11:08:45;;;;;;;1.10;0.90;;;25.50;55.70;;;;;;5076009;28;20441;-90
2022/05/13 11:11:27;;;;;;;1.60;1.03;;;25.50;55.70;;;;;;5075151;28;20480;-91
2022/05/13 11:14:03;;;;;;;1.60;0.90;;;25.50;55.70;;;;;;5074981;28;20471;-91
2022/05/13 11:16:44;;;;;;;1.10;1.00;;;25.50;56.20;;;;;;5075108;28;20487;-90
2022/05/13 11:19:22;;;;;;;1.20;1.07;;;25.50;55.60;;;;;;5075121;28;20456;-90
2022/05/13 11:21:58;;;;;;;1.47;1.03;;;25.50;55.60;;;;;;5074914;28;20501;-90
2022/05/13 11:27:42;;;;;;;1.50;0.97;;;25.50;55.70;;;;;;5075157;28;21053;-90
2022/05/13 11:30:12;;;;;;;1.10;0.90;;;25.50;55.80;;;;;;5074926;28;20464;-90
2022/05/13 11:32:46;;;;;;;1.20;0.90;;;25.50;55.90;;;;;;5074692;28;20437;-90
2022/05/13 11:35:38;;;;;;;1.20;1.10;;;25.50;55.80;;;;;;5074833;28;20468;-90
2022/05/13 11:38:11;;;;;;;1.20;1.10;;;25.60;55.90;;;;;;5074776;28;20445;-90
2022/05/13 11:40:47;;;;;;;1.10;0.90;;;25.50;55.90;;;;;;5074528;28;20445;-90
2022/05/13 11:43:29;;;;;;;1.10;0.90;;;25.50;55.90;;;;;;5074800;28;20442;-90
2022/05/13 11:46:26;;;;;;;1.00;0.80;;;25.60;55.80;;;;;;5074605;28;20526;-90
2022/05/13 11:48:59;;;;;;;1.20;1.00;;;25.50;55.80;;;;;;5074429;28;20456;-90
2022/05/13 11:51:28;;;;;;;1.43;1.10;;;25.50;55.80;;;;;;5074404;28;20838;-90
2022/05/13 11:54:21;;;;;;;1.37;0.90;;;25.50;55.80;;;;;;5074334;28;20453;-90
2022/05/13 11:56:49;;;;;;;1.13;1.00;;;25.60;55.90;;;;;;5074248;28;20449;-90
2022/05/13 11:59:46;;;;;;;1.50;0.90;;;25.60;55.90;;;;;;5074254;28;20447;-90
2022/05/13 12:02:29;;;;;;;1.20;1.10;;;25.60;55.80;;;;;;5074260;28;20469;-90
2022/05/13 12:05:18;;;;;;;1.20;1.10;;;25.50;55.90;;;;;;5074161;28;20436;-90
2022/05/13 12:07:53;;;;;;;1.20;0.90;;;25.50;55.80;;;;;;5073313;28;20464;-90
2022/05/13 12:10:27;;;;;;;1.10;1.00;;;25.50;55.80;;;;;;5074074;28;20479;-90
2022/05/13 12:13:07;;;;;;;1.40;1.03;;;25.50;55.80;;;;;;5073826;28;20449;-90
2022/05/13 12:15:42;;;;;;;1.23;1.13;;;25.50;55.80;;;;;;5073980;28;20480;-90
2022/05/13 12:18:20;;;;;;;1.20;1.10;;;25.60;55.90;;;;;;5073769;28;20464;-90
2022/05/13 12:20:54;;;;;;;1.70;1.20;;;25.60;56.60;;;;;;5073903;28;20445;-90
2022/05/13 12:23:26;;;;;;;1.20;1.07;;;25.50;55.80;;;;;;5073978;28;20520;-90
2022/05/13 12:25:56;;;;;;;1.10;0.90;;;25.50;55.80;;;;;;5073718;28;20437;-90
2022/05/13 12:28:26;;;;;;;1.20;1.00;;;25.50;55.80;;;;;;5073922;28;20444;-90
2022/05/13 12:30:53;;;;;;;1.20;1.00;;;25.60;55.90;;;;;;5073796;28;20503;-90
2022/05/13 12:33:38;;;;;;;1.73;1.30;;;25.50;55.80;;;;;;5073756;28;20848;-90
2022/05/13 12:39:13;;;;;;;1.37;1.10;;;25.60;55.90;;;;;;5073843;28;20919;-90
2022/05/13 12:41:52;;;;;;;1.20;1.00;;;25.60;55.90;;;;;;5073877;28;20992;-90
2022/05/13 12:44:26;;;;;;;1.43;1.07;;;25.50;55.80;;;;;;5073705;28;20932;-89
2022/05/13 12:47:14;;;;;;;1.20;1.10;;;25.60;55.90;;;;;;5073515;28;20442;-90
2022/05/13 12:49:55;;;;;;;1.23;1.10;;;25.50;55.80;;;;;;5073249;28;20433;-90
2022/05/13 12:52:35;;;;;;;1.40;1.20;;;25.60;55.90;;;;;;5073357;28;20451;-90
2022/05/13 12:55:06;;;;;;;1.30;1.20;;;25.60;55.90;;;;;;5073506;28;20439;-90
2022/05/13 12:57:38;;;;;;;2.60;1.37;;;25.50;55.80;;;;;;5073320;28;20439;-90
2022/05/13 13:00:08;;;;;;;1.43;1.33;;;25.50;55.70;;;;;;5073654;28;20442;-90
2022/05/13 13:02:36;;;;;;;1.77;1.00;;;25.50;55.80;;;;;;5073347;28;20444;-90
2022/05/13 13:05:07;;;;;;;1.50;1.20;;;25.50;55.80;;;;;;5073309;28;20440;-90
2022/05/13 13:07:38;;;;;;;2.10;1.13;;;25.50;55.80;;;;;;5073175;28;20443;-90
2022/05/13 13:10:06;;;;;;;1.20;1.10;;;25.60;55.90;;;;;;5073452;28;20452;-90
2022/05/13 13:12:38;;;;;;;1.10;1.00;;;25.50;55.90;;;;;;5073281;28;20445;-90
2022/05/13 13:15:09;;;;;;;1.13;1.00;;;25.60;55.80;;;;;;5072959;28;20476;-90
2022/05/13 13:17:43;;;;;;;1.30;1.20;;;25.50;55.80;;;;;;5073206;28;20823;-90
2022/05/13 13:20:12;;;;;;;1.20;1.10;;;25.50;55.80;;;;;;5073518;28;20642;-90
2022/05/13 13:22:43;;;;;;;1.30;1.20;;;25.50;55.90;;;;;;5072986;28;20437;-90
2022/05/13 13:25:24;;;;;;;1.40;1.30;;;25.60;55.90;;;;;;5074097;28;20811;-90
2022/05/13 13:27:52;;;;;;;1.33;1.10;;;25.60;55.80;;;;;;5077154;28;20436;-90
2022/05/13 13:30:23;;;;;;;1.43;1.33;;;25.50;55.80;;;;;;5077114;28;20476;-90
2022/05/13 13:32:51;;;;;;;1.40;1.30;;;25.60;55.90;;;;;;5077282;28;20444;-90
2022/05/13 13:35:29;;;;;;;1.23;1.13;;;25.50;55.80;;;;;;5077039;28;20447;-90